Time;durP1;ratioP1;P1;durP2;ratioP2;P2;SDS_P1;SDS_P2;PMS_P1;PMS_P2;Temp;Humidity;BMP_temperature;BMP_pressure;BME280_temperature;BME280_humidity;BME280_pressure;Samples;Min_cycle;Max_cycle;Signal;HPM_P1;HPM_P2
2023/05/03 00:00:07;;;;;;;337.05;142.85;;;;;;;13.37;55.91;100122.22;305351;32;2811;-71
2023/05/03 00:00:18;;;;;;;339.02;143.75;;;;;;;13.38;55.81;100131.81;304811;32;3573;-71
2023/05/03 00:00:28;;;;;;;343.45;144.10;;;;;;;13.37;56.09;100127.47;305085;32;5002;-71
2023/05/03 00:00:39;;;;;;;339.67;141.90;;;;;;;13.23;56.09;100119.34;303976;32;1296;-72
2023/05/03 00:00:50;;;;;;;339.27;139.23;;;;;;;13.13;56.45;100118.00;302974;32;5444;-71
2023/05/03 00:01:00;;;;;;;336.57;139.20;;;;;;;13.15;56.40;100122.25;301307;32;6529;-71
2023/05/03 00:01:11;;;;;;;336.65;138.82;;;;;;;13.16;56.36;100124.00;302980;32;932;-71
2023/05/03 00:01:22;;;;;;;334.40;138.17;;;;;;;13.12;56.31;100122.41;302605;32;6928;-71
2023/05/03 00:01:33;;;;;;;334.27;138.13;;;;;;;13.16;56.41;100117.91;304247;32;6077;-71
2023/05/03 00:01:43;;;;;;;333.90;137.97;;;;;;;13.22;56.38;100122.88;301723;32;6355;-71
2023/05/03 00:01:53;;;;;;;333.77;139.00;;;;;;;13.25;56.30;100122.75;304070;32;1221;-71
2023/05/03 00:02:04;;;;;;;335.40;139.37;;;;;;;13.28;56.11;100127.88;302028;32;4989;-71
2023/05/03 00:02:15;;;;;;;336.93;139.93;;;;;;;13.32;56.02;100121.56;299916;32;4555;-71
2023/05/03 00:02:25;;;;;;;335.70;138.35;;;;;;;13.28;55.95;100122.63;298860;33;867;-71
2023/05/03 00:02:38;;;;;;;333.87;137.13;;;;;;;13.28;55.97;100128.72;296577;33;5258;-71
2023/05/03 00:02:50;;;;;;;334.63;138.27;;;;;;;13.32;55.85;100129.47;300854;32;6653;-71
2023/05/03 00:03:03;;;;;;;337.17;141.02;;;;;;;13.32;55.81;100124.19;298987;32;7860;-71
2023/05/03 00:03:13;;;;;;;336.15;139.48;;;;;;;13.31;56.08;100128.59;298061;32;8808;-71
2023/05/03 00:03:24;;;;;;;337.33;139.77;;;;;;;13.34;55.82;100122.34;302990;32;1847;-71
2023/05/03 00:03:36;;;;;;;336.15;137.45;;;;;;;13.35;55.62;100126.69;299591;32;9595;-71
2023/05/03 00:03:47;;;;;;;335.63;138.13;;;;;;;13.40;56.04;100121.22;296082;32;8484;-71
2023/05/03 00:03:58;;;;;;;334.83;138.00;;;;;;;13.37;55.82;100127.47;295342;33;9207;-70
2023/05/03 00:04:08;;;;;;;335.85;138.23;;;;;;;13.35;55.70;100129.31;291847;33;1234;-71
2023/05/03 00:04:19;;;;;;;335.07;139.17;;;;;;;13.34;55.83;100122.34;290074;33;7072;-71
2023/05/03 00:06:12;;;;;;;331.81;133.03;;;;;;;13.15;56.50;100124.03;2500915;27;20568;-70
2023/05/03 00:06:22;;;;;;;333.67;135.68;;;;;;;13.14;56.22;100120.56;352679;28;1502;-70
2023/05/03 00:06:33;;;;;;;335.47;135.77;;;;;;;13.06;56.48;100113.91;351502;28;1235;-70
2023/05/03 00:06:43;;;;;;;336.90;137.57;;;;;;;13.07;56.46;100123.50;350131;28;879;-70
2023/05/03 00:06:54;;;;;;;335.93;138.60;;;;;;;13.04;56.79;100113.13;351286;28;1285;-70
2023/05/03 00:07:05;;;;;;;333.52;137.40;;;;;;;13.03;56.64;100116.66;349965;28;1547;-70
2023/05/03 00:07:17;;;;;;;334.63;138.07;;;;;;;12.99;56.75;100114.22;348685;28;836;-70
2023/05/03 00:07:27;;;;;;;333.45;137.20;;;;;;;12.98;56.71;100117.75;348717;28;1573;-70
2023/05/03 00:07:39;;;;;;;330.37;134.90;;;;;;;12.96;57.03;100121.38;348689;28;903;-72
2023/05/03 00:07:49;;;;;;;328.17;133.50;;;;;;;12.91;56.99;100118.94;349168;28;1613;-71
2023/05/03 00:08:00;;;;;;;330.03;134.93;;;;;;;12.91;57.00;100113.69;350161;28;876;-71
2023/05/03 00:08:10;;;;;;;332.45;135.73;;;;;;;12.90;57.12;100119.84;348580;28;1487;-71
2023/05/03 00:08:21;;;;;;;340.17;138.93;;;;;;;12.92;56.94;100123.25;345975;28;1287;-70
2023/05/03 00:08:31;;;;;;;346.70;147.35;;;;;;;12.96;56.99;100122.22;348998;28;1603;-71
2023/05/03 00:08:42;;;;;;;350.00;148.80;;;;;;;12.99;57.10;100115.97;350158;28;918;-70
2023/05/03 00:08:52;;;;;;;339.27;143.43;;;;;;;13.06;56.84;100119.16;350063;28;840;-70
2023/05/03 00:09:03;;;;;;;335.15;138.40;;;;;;;13.10;56.75;100118.13;350107;28;1220;-70
2023/05/03 00:09:13;;;;;;;332.27;136.93;;;;;;;13.12;56.64;100121.53;350108;28;900;-70
2023/05/03 00:09:23;;;;;;;331.33;136.75;;;;;;;13.15;56.73;100118.78;350109;28;915;-70
2023/05/03 00:09:34;;;;;;;332.50;134.57;;;;;;;13.17;56.62;100111.72;349976;28;1469;-70
2023/05/03 00:09:45;;;;;;;332.55;134.75;;;;;;;13.16;56.68;100112.63;350087;28;800;-70
2023/05/03 00:09:56;;;;;;;333.88;134.52;;;;;;;13.18;56.49;100114.28;347277;28;849;-70
2023/05/03 00:10:07;;;;;;;329.65;134.27;;;;;;;13.22;56.45;100125.50;347088;28;1444;-70
2023/05/03 00:10:18;;;;;;;329.30;134.50;;;;;;;13.22;56.39;100120.25;345945;28;1646;-70
2023/05/03 00:10:28;;;;;;;330.13;134.52;;;;;;;13.26;56.26;100113.94;345937;28;1331;-70
2023/05/03 00:10:39;;;;;;;331.93;135.97;;;;;;;13.30;56.14;100121.63;347351;28;1608;-70
2023/05/03 00:10:49;;;;;;;331.95;135.85;;;;;;;13.32;55.87;100114.53;347286;28;888;-72
2023/05/03 00:10:59;;;;;;;332.20;137.03;;;;;;;13.36;55.81;100112.63;344657;28;860;-71
2023/05/03 00:11:10;;;;;;;332.83;138.50;;;;;;;13.41;55.96;100118.53;344583;28;760;-71
2023/05/03 00:11:20;;;;;;;333.70;140.80;;;;;;;13.43;55.88;100121.91;344566;28;1134;-71
2023/05/03 00:11:31;;;;;;;335.13;142.27;;;;;;;13.42;55.94;100109.72;345999;28;1174;-71
2023/05/03 00:11:41;;;;;;;334.15;141.93;;;;;;;13.42;55.73;100114.13;344615;28;1623;-71
2023/05/03 00:11:55;;;;;;;333.33;141.07;;;;;;;13.43;55.68;100111.41;344833;28;2335;-71
2023/05/03 00:12:05;;;;;;;332.65;137.82;;;;;;;13.45;55.58;100112.19;345784;28;1197;-71
2023/05/03 00:12:16;;;;;;;334.77;136.93;;;;;;;13.44;55.98;100113.13;344569;28;1275;-71
2023/05/03 00:12:26;;;;;;;333.45;137.23;;;;;;;13.47;55.74;100112.13;347389;28;821;-71
2023/05/03 00:12:39;;;;;;;333.23;136.87;;;;;;;13.47;55.71;100107.72;348441;28;1318;-71
2023/05/03 00:12:50;;;;;;;331.15;136.30;;;;;;;13.49;55.60;100113.75;343167;28;3145;-71
2023/05/03 00:13:00;;;;;;;333.67;138.10;;;;;;;13.49;55.21;100105.03;343172;28;1159;-71
2023/05/03 00:13:10;;;;;;;335.75;139.88;;;;;;;13.46;55.64;100105.16;342489;28;3560;-70
2023/05/03 00:13:21;;;;;;;337.40;142.37;;;;;;;13.43;55.72;100111.41;343300;28;2956;-70
2023/05/03 00:13:31;;;;;;;333.90;141.67;;;;;;;13.35;55.69;100113.53;343141;28;989;-70
2023/05/03 00:13:42;;;;;;;334.42;141.93;;;;;;;13.35;55.88;100108.28;345574;28;1796;-70
2023/05/03 00:13:52;;;;;;;332.50;139.20;;;;;;;13.29;55.88;100105.94;344573;28;1356;-70
2023/05/03 00:14:02;;;;;;;332.88;135.80;;;;;;;13.17;55.91;100109.94;344770;28;1199;-70
2023/05/03 00:14:13;;;;;;;333.43;135.80;;;;;;;13.14;56.09;100104.78;341804;28;1145;-70
2023/05/03 00:14:23;;;;;;;335.30;137.80;;;;;;;13.16;56.11;100104.75;343801;28;1368;-70
2023/05/03 00:14:34;;;;;;;336.00;141.43;;;;;;;13.15;56.21;100110.91;344324;28;1147;-70
2023/05/03 00:14:44;;;;;;;335.52;138.50;;;;;;;13.12;56.29;100105.78;343156;28;829;-70
2023/05/03 00:14:55;;;;;;;334.70;138.33;;;;;;;13.16;56.50;100097.72;343137;28;1212;-71
2023/05/03 00:15:06;;;;;;;333.45;136.02;;;;;;;13.20;56.28;100101.06;342997;28;1911;-71
2023/05/03 00:15:16;;;;;;;332.60;137.13;;;;;;;13.24;56.40;100100.03;344227;28;1951;-71
2023/05/03 00:15:27;;;;;;;331.87;135.97;;;;;;;13.28;56.19;100106.84;343297;28;858;-71
2023/05/03 00:15:37;;;;;;;332.90;136.55;;;;;;;13.32;56.06;100105.78;339609;29;1382;-71
2023/05/03 00:15:47;;;;;;;332.60;134.97;;;;;;;13.36;55.81;100106.50;339317;29;1456;-71
2023/05/03 00:15:58;;;;;;;333.42;136.23;;;;;;;13.39;55.77;100107.22;340587;29;1230;-71
2023/05/03 00:16:08;;;;;;;333.33;136.17;;;;;;;13.41;55.81;100113.28;340099;29;1191;-70
2023/05/03 00:16:19;;;;;;;333.37;137.50;;;;;;;13.43;55.70;100108.78;335768;29;1873;-70
2023/05/03 00:16:29;;;;;;;333.43;136.80;;;;;;;13.43;55.70;100105.31;335468;29;965;-70
2023/05/03 00:16:40;;;;;;;332.40;137.95;;;;;;;13.43;55.72;100106.16;333686;29;1896;-70
2023/05/03 00:16:50;;;;;;;332.63;139.80;;;;;;;13.44;55.46;100107.00;333804;29;1475;-70
2023/05/03 00:17:01;;;;;;;334.75;142.73;;;;;;;13.46;55.67;100105.16;334993;29;1984;-71
2023/05/03 00:17:11;;;;;;;335.27;140.70;;;;;;;13.47;55.86;100110.34;334007;29;1255;-71
2023/05/03 00:17:22;;;;;;;333.60;137.55;;;;;;;13.50;55.82;100106.72;332309;29;1645;-71
2023/05/03 00:17:32;;;;;;;330.73;135.07;;;;;;;13.50;55.58;100102.31;333196;29;1263;-71
2023/05/03 00:17:43;;;;;;;331.77;137.73;;;;;;;13.50;55.80;100112.00;332927;29;890;-71
2023/05/03 00:17:53;;;;;;;333.23;142.10;;;;;;;13.47;55.53;100102.47;330490;29;1568;-71
2023/05/03 00:18:04;;;;;;;333.67;143.20;;;;;;;13.38;55.69;100107.31;329490;29;1746;-71
2023/05/03 00:18:14;;;;;;;332.47;141.27;;;;;;;13.33;55.73;100110.13;327882;30;1376;-71
2023/05/03 00:18:25;;;;;;;333.52;140.50;;;;;;;13.25;55.67;100106.97;328668;29;2076;-71
2023/05/03 00:18:35;;;;;;;333.63;140.48;;;;;;;13.27;56.19;100106.00;325621;29;2335;-71
2023/05/03 00:18:46;;;;;;;333.20;140.57;;;;;;;13.28;55.85;100106.84;322496;30;2419;-71
2023/05/03 00:18:56;;;;;;;333.00;140.85;;;;;;;13.25;56.12;100106.97;325514;30;1325;-71
2023/05/03 00:19:06;;;;;;;333.63;140.93;;;;;;;13.28;56.05;100114.75;322905;30;2484;-71
2023/05/03 00:19:18;;;;;;;334.43;141.50;;;;;;;13.33;56.11;100110.13;321663;30;2456;-71
2023/05/03 00:19:32;;;;;;;333.27;139.63;;;;;;;13.37;56.21;100110.84;320743;30;817;-71
2023/05/03 00:19:42;;;;;;;333.58;141.18;;;;;;;13.41;55.97;100112.44;318421;31;943;-71
2023/05/03 00:19:55;;;;;;;335.37;143.27;;;;;;;13.40;56.04;100108.94;319977;30;1751;-71
2023/05/03 00:20:06;;;;;;;336.40;143.02;;;;;;;13.42;55.95;100108.88;318414;30;2264;-71
2023/05/03 00:20:18;;;;;;;334.73;141.20;;;;;;;13.44;56.15;100107.84;314492;31;2513;-71
2023/05/03 00:20:28;;;;;;;335.90;143.02;;;;;;;13.48;56.01;100117.31;313686;31;1721;-72
2023/05/03 00:20:38;;;;;;;334.80;143.57;;;;;;;13.48;55.98;100114.69;310808;31;2563;-71
2023/05/03 00:20:50;;;;;;;334.35;142.63;;;;;;;13.48;56.17;100109.44;307967;31;3448;-70
2023/05/03 00:21:00;;;;;;;335.10;142.13;;;;;;;13.47;55.68;100112.97;308385;32;910;-70
2023/05/03 00:21:11;;;;;;;337.10;143.50;;;;;;;13.44;55.55;100113.13;302962;32;906;-70
2023/05/03 00:21:21;;;;;;;336.95;144.55;;;;;;;13.45;55.71;100112.19;302619;32;3367;-70
2023/05/03 00:21:32;;;;;;;336.88;142.02;;;;;;;13.48;55.92;100111.19;300174;32;3451;-71
2023/05/03 00:21:42;;;;;;;335.00;139.93;;;;;;;13.47;55.74;100112.97;298930;33;955;-71
2023/05/03 00:21:53;;;;;;;338.15;141.80;;;;;;;13.50;55.53;100117.25;303064;32;2532;-71
2023/05/03 00:22:03;;;;;;;338.57;144.37;;;;;;;13.51;55.81;100111.91;298332;32;5249;-70
2023/05/03 00:22:13;;;;;;;339.02;146.55;;;;;;;13.51;56.00;100111.91;296662;33;2194;-70
2023/05/03 00:22:24;;;;;;;336.07;144.57;;;;;;;13.51;55.83;100111.06;299606;32;2727;-70
2023/05/03 00:22:35;;;;;;;336.35;143.10;;;;;;;13.51;55.61;100113.69;296649;33;3461;-71
2023/05/03 00:22:46;;;;;;;334.90;141.27;;;;;;;13.52;55.49;100111.00;292829;33;4072;-71
2023/05/03 00:22:56;;;;;;;335.67;143.33;;;;;;;13.55;55.56;100115.28;292946;33;1254;-71
2023/05/03 00:23:07;;;;;;;333.27;143.02;;;;;;;13.57;55.60;100113.41;290382;33;4865;-71
2023/05/03 00:23:18;;;;;;;334.90;143.00;;;;;;;13.58;55.54;100110.72;290752;33;4896;-71
2023/05/03 00:23:28;;;;;;;333.67;141.80;;;;;;;13.55;55.31;100115.28;295842;33;886;-71
2023/05/03 00:23:38;;;;;;;334.13;143.02;;;;;;;13.45;55.42;100113.97;295977;33;4025;-71
2023/05/03 00:23:49;;;;;;;334.40;143.37;;;;;;;13.42;55.73;100109.72;295188;33;4478;-71
2023/05/03 00:23:59;;;;;;;335.52;143.45;;;;;;;13.42;55.67;100120.25;295964;33;889;-71
2023/05/03 00:24:10;;;;;;;336.13;145.03;;;;;;;13.42;55.99;100109.72;293238;33;3570;-70
2023/05/03 00:24:21;;;;;;;336.17;144.20;;;;;;;13.46;55.64;100116.53;292499;33;3672;-70
2023/05/03 00:24:31;;;;;;;335.75;141.90;;;;;;;13.48;55.60;100119.09;292790;33;4252;-71
2023/05/03 00:24:42;;;;;;;335.60;142.23;;;;;;;13.49;55.54;100118.16;292866;33;1341;-71
2023/05/03 00:24:52;;;;;;;334.95;141.40;;;;;;;13.50;55.55;100120.72;292440;33;5288;-71
2023/05/03 00:25:03;;;;;;;334.53;140.80;;;;;;;13.52;55.61;100113.63;291566;33;5920;-71
2023/05/03 00:25:14;;;;;;;335.10;141.27;;;;;;;13.53;55.56;100123.22;291923;33;898;-71
2023/05/03 00:25:24;;;;;;;335.67;143.80;;;;;;;13.54;55.37;100118.81;287985;34;6678;-71
2023/05/03 00:25:34;;;;;;;335.50;144.43;;;;;;;13.56;55.76;100117.81;288987;33;7512;-71
2023/05/03 00:25:45;;;;;;;336.10;142.90;;;;;;;13.58;55.28;100121.25;290947;34;1156;-71
2023/05/03 00:25:56;;;;;;;334.27;139.43;;;;;;;13.59;55.94;100117.69;289201;34;6703;-71
2023/05/03 00:26:06;;;;;;;333.75;141.10;;;;;;;13.61;55.45;100121.09;286363;34;6782;-71
2023/05/03 00:26:16;;;;;;;333.87;140.93;;;;;;;13.58;55.54;100126.50;285293;34;5234;-71
2023/05/03 00:26:27;;;;;;;336.65;142.68;;;;;;;13.57;55.61;100119.53;288164;34;959;-71
2023/05/03 00:26:37;;;;;;;336.93;143.70;;;;;;;13.56;55.51;100117.81;287629;34;5628;-71
2023/05/03 00:26:48;;;;;;;335.20;144.93;;;;;;;13.52;55.44;100131.19;284034;34;7245;-71
2023/05/03 00:26:58;;;;;;;335.30;143.43;;;;;;;13.49;55.75;100124.28;283532;34;996;-71
2023/05/03 00:27:08;;;;;;;335.33;141.40;;;;;;;13.49;55.67;100119.03;282416;34;7515;-71
2023/05/03 00:27:19;;;;;;;336.20;142.27;;;;;;;13.49;55.77;100119.03;280765;34;8770;-71
2023/05/03 00:27:29;;;;;;;334.73;141.57;;;;;;;13.49;55.75;100116.41;278969;35;1273;-71
2023/05/03 00:27:40;;;;;;;336.67;142.10;;;;;;;13.51;55.68;100125.06;280071;35;11762;-71
2023/05/03 00:29:53;;;;;;;331.83;137.05;;;;;;;13.56;55.56;100112.56;2500750;27;20276;-71
2023/05/03 00:30:04;;;;;;;333.97;140.00;;;;;;;13.51;55.47;100114.56;351363;28;1300;-71
2023/05/03 00:30:14;;;;;;;334.05;138.57;;;;;;;13.50;55.47;100112.84;348574;28;1420;-71
2023/05/03 00:30:25;;;;;;;334.35;138.70;;;;;;;13.51;55.52;100109.28;347418;28;832;-71
2023/05/03 00:30:35;;;;;;;335.33;140.63;;;;;;;13.50;55.59;100114.63;347281;28;1490;-70
2023/05/03 00:30:45;;;;;;;340.33;143.83;;;;;;;13.47;55.76;100107.72;347307;28;865;-70
2023/05/03 00:30:56;;;;;;;341.77;144.87;;;;;;;13.49;55.58;100111.13;347276;28;1271;-70
2023/05/03 00:31:07;;;;;;;346.10;147.68;;;;;;;13.45;55.88;100104.31;346739;28;3134;-70
2023/05/03 00:31:18;;;;;;;344.17;147.25;;;;;;;13.40;55.72;100106.31;349531;28;1954;-70
2023/05/03 00:31:28;;;;;;;341.20;145.88;;;;;;;13.34;56.07;100111.84;351689;28;1241;-70
2023/05/03 00:31:39;;;;;;;338.17;144.67;;;;;;;13.37;56.01;100106.44;348759;28;942;-71
2023/05/03 00:31:49;;;;;;;338.60;143.20;;;;;;;13.40;55.76;100103.69;351054;28;935;-71
2023/05/03 00:32:01;;;;;;;338.37;141.77;;;;;;;13.40;55.88;100103.69;351407;28;1195;-70
2023/05/03 00:32:11;;;;;;;336.23;141.18;;;;;;;13.42;55.79;100108.88;350076;28;984;-72
2023/05/03 00:32:21;;;;;;;334.53;140.93;;;;;;;13.34;56.15;100108.34;348393;28;1528;-71
2023/05/03 00:32:32;;;;;;;335.08;141.05;;;;;;;13.36;56.00;100111.78;348695;28;954;-72
2023/05/03 00:32:42;;;;;;;336.33;141.63;;;;;;;13.34;56.03;100106.59;348830;28;868;-71
2023/05/03 00:32:53;;;;;;;336.33;141.63;;;;;;;13.22;55.88;100101.84;346009;28;804;-71
2023/05/03 00:33:03;;;;;;;335.30;139.95;;;;;;;13.18;56.29;100100.28;347323;28;1374;-71
2023/05/03 00:33:15;;;;;;;333.17;139.10;;;;;;;13.21;56.35;100105.41;348824;28;1355;-71
2023/05/03 00:33:25;;;;;;;334.48;138.60;;;;;;;13.16;56.29;100108.22;347233;28;1461;-71
2023/05/03 00:33:36;;;;;;;335.92;139.90;;;;;;;13.17;56.61;100106.47;347349;28;919;-71
2023/05/03 00:33:47;;;;;;;336.48;140.20;;;;;;;13.15;56.50;100105.63;346354;28;1305;-71
2023/05/03 00:33:57;;;;;;;335.97;140.37;;;;;;;13.13;56.61;100104.84;347320;28;1351;-71
2023/05/03 00:34:07;;;;;;;335.90;138.63;;;;;;;13.10;56.79;100107.59;348626;28;1595;-72
2023/05/03 00:34:18;;;;;;;336.05;137.82;;;;;;;13.07;56.93;100102.47;347683;28;1106;-72
2023/05/03 00:34:28;;;;;;;335.40;137.03;;;;;;;13.05;56.77;100114.84;348582;28;1343;-71
2023/05/03 00:34:38;;;;;;;332.98;136.73;;;;;;;13.07;56.78;100105.97;348759;28;864;-72
2023/05/03 00:34:53;;;;;;;332.13;137.20;;;;;;;13.07;56.88;100099.84;347367;28;864;-71
2023/05/03 00:35:04;;;;;;;336.02;137.80;;;;;;;13.15;56.62;100098.59;343281;28;1294;-71
2023/05/03 00:35:14;;;;;;;337.95;138.77;;;;;;;13.21;56.58;100098.38;341376;28;940;-71
2023/05/03 00:35:26;;;;;;;337.20;138.17;;;;;;;13.27;56.38;100105.13;341912;28;1362;-72
2023/05/03 00:35:36;;;;;;;336.85;136.95;;;;;;;13.26;56.53;100100.81;344362;28;1297;-70
2023/05/03 00:35:47;;;;;;;338.07;136.00;;;;;;;13.22;56.34;100096.59;344237;28;1986;-71
2023/05/03 00:35:57;;;;;;;339.08;137.80;;;;;;;13.23;56.40;100093.06;343090;28;900;-71
2023/05/03 00:36:09;;;;;;;339.80;141.43;;;;;;;13.19;56.41;100094.09;343170;28;1468;-71
2023/05/03 00:36:19;;;;;;;338.75;142.18;;;;;;;13.25;56.65;100099.09;345170;28;1208;-71
2023/05/03 00:36:29;;;;;;;340.20;139.43;;;;;;;13.26;56.22;100098.19;347116;28;1179;-71
2023/05/03 00:36:40;;;;;;;342.50;138.18;;;;;;;13.26;56.20;100095.53;351418;28;1195;-71
2023/05/03 00:36:50;;;;;;;340.20;136.93;;;;;;;13.26;56.46;100098.19;347299;28;978;-71
2023/05/03 00:37:01;;;;;;;337.33;135.17;;;;;;;13.26;56.34;100098.19;347287;28;826;-71
2023/05/03 00:37:11;;;;;;;334.90;135.97;;;;;;;13.28;56.34;100093.72;344601;28;1039;-71
2023/05/03 00:37:22;;;;;;;337.13;139.40;;;;;;;13.26;56.27;100096.41;344562;28;1276;-71
2023/05/03 00:37:32;;;;;;;336.15;141.00;;;;;;;13.24;56.56;100097.38;343305;28;923;-71
2023/05/03 00:37:43;;;;;;;335.90;139.20;;;;;;;13.19;56.54;100096.75;340317;28;1273;-71
2023/05/03 00:37:53;;;;;;;337.20;139.43;;;;;;;13.16;56.46;100102.13;340708;29;1190;-71
2023/05/03 00:38:04;;;;;;;338.30;140.65;;;;;;;13.19;56.30;100096.75;339005;28;1418;-71
2023/05/03 00:38:14;;;;;;;339.57;142.10;;;;;;;13.18;56.63;100093.25;337074;29;1278;-71
2023/05/03 00:38:24;;;;;;;339.80;141.52;;;;;;;13.24;56.60;100092.13;339409;29;756;-71
2023/05/03 00:38:35;;;;;;;339.33;141.40;;;;;;;13.24;56.34;100100.88;337784;29;1576;-71
2023/05/03 00:38:46;;;;;;;336.42;138.90;;;;;;;13.24;56.17;100100.88;336990;29;1986;-71
2023/05/03 00:38:56;;;;;;;337.63;137.90;;;;;;;13.22;56.37;100093.97;338109;29;677;-71
2023/05/03 00:39:06;;;;;;;341.55;140.57;;;;;;;13.19;56.70;100096.75;337454;29;1851;-71
2023/05/03 00:39:17;;;;;;;341.60;141.40;;;;;;;13.21;56.38;100100.16;337833;29;1233;-71
2023/05/03 00:39:30;;;;;;;338.90;141.50;;;;;;;13.25;56.67;100097.31;335335;29;1384;-71
2023/05/03 00:39:41;;;;;;;335.65;139.20;;;;;;;13.28;56.63;100099.81;334159;29;945;-71
2023/05/03 00:39:51;;;;;;;338.73;141.53;;;;;;;13.28;56.45;100097.19;339910;29;1475;-70
2023/05/03 00:40:02;;;;;;;339.52;142.85;;;;;;;13.27;56.44;100095.47;339501;29;1734;-70
2023/05/03 00:40:17;;;;;;;339.17;141.48;;;;;;;13.30;56.44;100102.38;335550;29;2687;-72
2023/05/03 00:40:27;;;;;;;337.00;137.65;;;;;;;13.35;56.38;100105.66;334049;29;2206;-70
2023/05/03 00:40:38;;;;;;;335.60;137.97;;;;;;;13.36;56.35;100102.09;336863;29;1082;-70
2023/05/03 00:40:54;;;;;;;339.15;138.13;;;;;;;13.39;56.24;100103.75;332834;29;2287;-70
2023/05/03 00:41:05;;;;;;;340.33;138.43;;;;;;;13.42;56.22;100099.22;331199;29;1567;-70
2023/05/03 00:41:16;;;;;;;340.20;139.65;;;;;;;13.41;56.04;100102.75;327960;30;1466;-70
2023/05/03 00:41:26;;;;;;;340.30;139.95;;;;;;;13.33;56.38;100099.63;328019;30;884;-70
2023/05/03 00:41:37;;;;;;;338.97;141.80;;;;;;;13.30;56.10;100100.59;327827;30;1378;-70
2023/05/03 00:41:48;;;;;;;338.08;141.57;;;;;;;13.28;56.30;100102.44;326970;29;1477;-70
2023/05/03 00:41:58;;;;;;;337.37;141.10;;;;;;;13.24;56.52;100100.03;327860;29;1883;-70
2023/05/03 00:42:09;;;;;;;336.98;139.98;;;;;;;13.23;56.47;100107.06;327858;30;876;-70
2023/05/03 00:42:19;;;;;;;339.77;142.27;;;;;;;13.21;56.56;100098.38;324452;30;1818;-70
2023/05/03 00:42:29;;;;;;;340.87;140.50;;;;;;;13.20;56.46;100096.66;320745;30;2562;-70
2023/05/03 00:42:40;;;;;;;340.50;140.02;;;;;;;13.21;56.66;100105.41;319574;30;1462;-70
2023/05/03 00:42:50;;;;;;;337.10;137.40;;;;;;;13.19;56.63;100102.00;319994;30;2969;-70
2023/05/03 00:43:01;;;;;;;336.67;137.50;;;;;;;13.19;56.59;100104.63;320856;30;2739;-70
2023/05/03 00:43:12;;;;;;;339.30;139.57;;;;;;;13.21;56.63;100100.16;321893;30;971;-70
2023/05/03 00:43:22;;;;;;;338.65;139.48;;;;;;;13.24;56.63;100100.03;326671;30;923;-70
2023/05/03 00:43:33;;;;;;;337.40;139.57;;;;;;;13.27;56.66;100097.25;325307;30;1625;-70
2023/05/03 00:43:43;;;;;;;336.60;139.03;;;;;;;13.30;56.83;100095.34;323752;30;1886;-70
2023/05/03 00:43:53;;;;;;;336.90;140.73;;;;;;;13.33;56.69;100099.63;321914;30;1225;-71
2023/05/03 00:44:04;;;;;;;336.33;142.47;;;;;;;13.34;56.49;100096.06;324630;30;2289;-71
2023/05/03 00:44:15;;;;;;;337.33;143.25;;;;;;;13.38;56.54;100099.41;324689;30;2599;-71
2023/05/03 00:44:25;;;;;;;338.48;142.00;;;;;;;13.40;56.39;100100.19;321703;30;1438;-71
2023/05/03 00:44:36;;;;;;;337.53;141.47;;;;;;;13.43;56.49;100093.00;315758;31;3395;-70
2023/05/03 00:44:46;;;;;;;336.60;140.80;;;;;;;13.46;56.52;100105.16;315388;31;3225;-70
2023/05/03 00:44:56;;;;;;;335.53;139.67;;;;;;;13.45;56.28;100104.31;316138;31;771;-71
2023/05/03 00:45:07;;;;;;;336.10;140.83;;;;;;;13.48;56.08;100101.53;310490;31;1342;-71
2023/05/03 00:45:17;;;;;;;336.27;141.07;;;;;;;13.44;55.93;100097.34;312266;31;3646;-71
2023/05/03 00:45:32;;;;;;;337.52;143.07;;;;;;;13.44;56.23;100102.59;310510;31;2407;-71
2023/05/03 00:45:45;;;;;;;337.52;142.32;;;;;;;13.37;56.14;100095.94;312465;31;2187;-71
2023/05/03 00:45:55;;;;;;;336.20;139.15;;;;;;;13.31;56.61;100102.31;312808;31;1307;-71
2023/05/03 00:46:06;;;;;;;335.63;137.63;;;;;;;13.32;56.49;100098.75;313017;31;2852;-71
2023/05/03 00:46:16;;;;;;;338.08;140.00;;;;;;;13.28;56.37;100093.72;309706;31;3343;-71
2023/05/03 00:46:27;;;;;;;336.70;140.93;;;;;;;13.26;56.35;100093.78;308284;32;1537;-71
2023/05/03 00:46:37;;;;;;;337.97;143.70;;;;;;;13.28;56.41;100097.19;301807;32;1370;-71
2023/05/03 00:46:47;;;;;;;337.63;144.33;;;;;;;13.30;56.08;100095.34;300706;32;4254;-71
2023/05/03 00:46:58;;;;;;;337.08;141.65;;;;;;;13.29;56.87;100098.91;297387;32;4134;-71
2023/05/03 00:47:08;;;;;;;336.47;140.77;;;;;;;13.31;56.36;100097.06;299841;32;1514;-71
2023/05/03 00:47:19;;;;;;;335.55;139.27;;;;;;;13.35;56.37;100092.50;302718;32;4347;-71
2023/05/03 00:47:30;;;;;;;337.95;139.95;;;;;;;13.35;56.41;100097.78;303554;32;4658;-71
2023/05/03 00:47:41;;;;;;;338.60;138.10;;;;;;;13.30;56.29;100094.50;305050;32;924;-71
2023/05/03 00:47:51;;;;;;;342.30;141.53;;;;;;;13.32;56.63;100093.50;303404;32;3439;-71
2023/05/03 00:48:02;;;;;;;340.65;141.48;;;;;;;13.30;56.43;100094.50;303198;32;3407;-71
2023/05/03 00:48:12;;;;;;;339.17;141.23;;;;;;;13.28;56.23;100101.59;302958;32;4155;-71
2023/05/03 00:48:22;;;;;;;338.77;140.90;;;;;;;13.28;56.16;100091.94;305210;32;955;-71
2023/05/03 00:48:33;;;;;;;339.17;142.57;;;;;;;13.32;56.35;100097.91;300534;32;4428;-71
2023/05/03 00:48:45;;;;;;;336.55;142.63;;;;;;;13.32;56.15;100093.50;297580;32;5402;-71
2023/05/03 00:48:55;;;;;;;334.08;139.98;;;;;;;13.35;56.31;100097.78;299850;32;1528;-71
2023/05/03 00:49:06;;;;;;;333.83;139.43;;;;;;;13.37;56.34;100095.94;301798;32;5890;-71
2023/05/03 00:49:16;;;;;;;335.20;138.10;;;;;;;13.39;56.48;100096.72;301297;32;5917;-70
2023/05/03 00:49:27;;;;;;;337.33;141.13;;;;;;;13.42;56.16;100099.22;297042;32;6022;-70
2023/05/03 00:49:37;;;;;;;339.95;142.90;;;;;;;13.44;56.02;100102.59;294860;33;1277;-70
2023/05/03 00:49:47;;;;;;;341.27;144.67;;;;;;;13.46;56.02;100098.13;295085;33;6750;-70
2023/05/03 00:49:59;;;;;;;339.58;143.65;;;;;;;13.47;56.17;100102.47;295342;32;5115;-70
2023/05/03 00:50:10;;;;;;;337.80;143.50;;;;;;;13.49;56.13;100105.88;297870;33;1338;-70
2023/05/03 00:50:21;;;;;;;337.83;143.45;;;;;;;13.51;55.80;100104.03;295545;33;5971;-70
2023/05/03 00:50:31;;;;;;;339.37;144.90;;;;;;;13.51;56.10;100100.53;296192;32;6397;-70
2023/05/03 00:50:42;;;;;;;340.13;146.07;;;;;;;13.52;55.98;100099.63;296926;33;763;-70
2023/05/03 00:50:53;;;;;;;339.60;144.60;;;;;;;13.53;56.01;100096.94;291031;33;952;-70
2023/05/03 00:51:03;;;;;;;341.40;143.38;;;;;;;13.56;55.97;100102.06;286463;34;10922;-70
2023/05/03 00:51:14;;;;;;;343.38;144.43;;;;;;;13.54;56.01;100098.63;286935;33;7903;-70
2023/05/03 00:51:26;;;;;;;343.98;145.73;;;;;;;13.54;55.95;100100.41;293920;33;924;-70
2023/05/03 00:51:36;;;;;;;339.55;144.70;;;;;;;13.52;55.89;100099.63;291507;33;7502;-70
2023/05/03 00:51:47;;;;;;;338.70;142.93;;;;;;;13.41;56.13;100101.91;288711;34;8427;-70
2023/05/03 00:51:58;;;;;;;339.37;145.30;;;;;;;13.33;56.18;100102.25;285477;33;10015;-70
2023/05/03 00:52:08;;;;;;;340.35;145.80;;;;;;;13.26;56.67;100106.06;289981;34;880;-70
2023/05/03 00:52:19;;;;;;;339.35;145.57;;;;;;;13.27;56.62;100105.13;288518;34;6767;-70
2023/05/03 00:54:19;;;;;;;328.01;132.56;;;;;;;13.18;57.01;100110.78;2490723;27;20312;-70
2023/05/03 00:54:31;;;;;;;335.75;139.70;;;;;;;13.14;57.00;100104.78;352926;28;918;-71